Time;durP1;ratioP1;P1;durP2;ratioP2;P2;SDS_P1;SDS_P2;PMS_P1;PMS_P2;Temp;Humidity;BMP_temperature;BMP_pressure;BME280_temperature;BME280_humidity;BME280_pressure;Samples;Min_cycle;Max_cycle;Signal;HPM_P1;HPM_P2
2022/01/28 00:00:28;;;;;;;2.30;0.60;;;5.40;91.10;;;;;;6181985;23;20055;-77
2022/01/28 00:03:01;;;;;;;2.88;0.80;;;5.50;91.20;;;;;;6181294;23;20001;-77
2022/01/28 00:05:27;;;;;;;4.95;0.50;;;5.40;91.00;;;;;;6155188;23;20009;-77
2022/01/28 00:07:53;;;;;;;1.88;0.50;;;5.50;91.00;;;;;;6181134;23;20504;-77
2022/01/28 00:10:22;;;;;;;2.33;0.80;;;5.50;91.00;;;;;;6160282;23;20085;-78
2022/01/28 00:15:43;;;;;;;1.52;0.50;;;5.40;91.00;;;;;;6180026;23;20009;-78
2022/01/28 00:37:03;;;;;;;1.55;0.40;;;5.10;91.10;;;;;;6305675;22;20007;-77
2022/01/28 00:39:28;;;;;;;0.45;0.28;;;5.10;91.10;;;;;;6256003;22;20074;-77
2022/01/28 00:41:54;;;;;;;0.47;0.20;;;5.00;91.10;;;;;;6275930;22;20047;-78
2022/01/28 00:44:20;;;;;;;2.53;0.40;;;5.00;91.20;;;;;;6306023;22;20409;-77
2022/01/28 00:46:46;;;;;;;0.80;0.40;;;4.90;91.20;;;;;;6277208;22;19999;-77
2022/01/28 00:49:11;;;;;;;0.65;0.25;;;5.00;91.20;;;;;;6276711;22;20007;-77
2022/01/28 00:51:37;;;;;;;1.15;0.40;;;4.90;91.20;;;;;;6275456;22;20004;-78
2022/01/28 00:54:03;;;;;;;1.17;0.35;;;4.90;91.20;;;;;;6277462;22;20061;-77
2022/01/28 00:56:29;;;;;;;1.58;0.70;;;4.80;91.20;;;;;;6250870;22;20023;-77
2022/01/28 00:58:54;;;;;;;1.42;0.40;;;4.80;91.20;;;;;;6305575;22;20030;-78
2022/01/28 01:01:20;;;;;;;0.57;0.30;;;4.80;91.20;;;;;;6278612;22;20009;-78
2022/01/28 01:03:46;;;;;;;1.63;0.65;;;4.80;91.20;;;;;;6251630;22;20079;-77
2022/01/28 01:06:12;;;;;;;0.47;0.20;;;4.80;91.20;;;;;;6276631;22;20051;-77
2022/01/28 01:08:38;;;;;;;2.38;0.52;;;4.70;91.20;;;;;;6305789;22;19999;-77
2022/01/28 01:11:05;;;;;;;2.05;0.47;;;4.70;91.20;;;;;;6252505;22;20304;-78
2022/01/28 01:13:38;;;;;;;3.63;0.50;;;4.80;91.20;;;;;;6276530;22;20011;-77
2022/01/28 01:16:05;;;;;;;2.25;0.50;;;4.70;91.20;;;;;;6277533;22;20004;-77
2022/01/28 01:18:43;;;;;;;0.85;0.45;;;4.60;91.20;;;;;;6251056;22;20448;-77
2022/01/28 01:21:15;;;;;;;0.65;0.40;;;4.60;91.20;;;;;;6278618;22;20104;-78
2022/01/28 01:23:49;;;;;;;1.63;0.30;;;4.60;91.30;;;;;;6279263;22;20314;-77
2022/01/28 01:26:15;;;;;;;2.40;0.50;;;4.60;91.30;;;;;;6280193;22;20003;-78
2022/01/28 01:28:42;;;;;;;1.88;0.50;;;4.50;91.30;;;;;;6275221;22;20049;-78
2022/01/28 01:31:13;;;;;;;1.58;0.40;;;4.50;91.30;;;;;;6277752;22;20003;-77
2022/01/28 01:33:49;;;;;;;1.70;0.35;;;4.50;91.30;;;;;;6305766;22;20011;-77
2022/01/28 01:36:15;;;;;;;3.78;0.63;;;4.50;91.30;;;;;;6279324;22;20008;-77
2022/01/28 01:38:42;;;;;;;1.42;0.65;;;4.50;91.30;;;;;;6277160;22;20082;-78
2022/01/28 01:41:13;;;;;;;1.95;0.45;;;4.50;91.30;;;;;;6277939;22;20010;-78
2022/01/28 01:43:55;;;;;;;;;;;4.50;91.20;;;;;;6250963;22;20003;-77
2022/01/28 01:46:34;;;;;;;0.75;0.32;;;4.50;91.20;;;;;;6276985;22;20316;-77
2022/01/28 01:54:25;;;;;;;1.00;0.30;;;4.50;91.10;;;;;;6254393;22;20014;-77
2022/01/28 01:56:54;;;;;;;2.95;0.52;;;4.50;91.10;;;;;;6305389;22;19999;-77
2022/01/28 01:59:20;;;;;;;1.20;0.40;;;4.50;91.10;;;;;;6277422;22;20304;-77
2022/01/28 02:01:46;;;;;;;3.13;0.50;;;4.50;91.10;;;;;;6250823;22;20477;-77
2022/01/28 02:04:12;;;;;;;2.65;0.40;;;4.50;91.10;;;;;;6225017;22;20112;-78
2022/01/28 02:06:40;;;;;;;1.95;0.50;;;4.50;91.10;;;;;;6246511;22;20371;-77
2022/01/28 02:09:06;;;;;;;4.95;0.60;;;4.40;91.10;;;;;;6278192;22;20007;-77
2022/01/28 02:11:32;;;;;;;2.08;0.60;;;4.40;91.20;;;;;;6277025;22;20003;-78
2022/01/28 02:13:58;;;;;;;1.48;0.40;;;4.40;91.10;;;;;;6250218;22;19998;-77
2022/01/28 02:16:24;;;;;;;0.50;0.30;;;4.50;91.20;;;;;;6249235;22;19996;-77
2022/01/28 02:18:50;;;;;;;3.40;0.45;;;4.40;91.10;;;;;;6277779;22;20443;-78
2022/01/28 02:21:18;;;;;;;1.20;0.35;;;4.50;91.20;;;;;;6276450;22;20309;-77
2022/01/28 02:23:48;;;;;;;1.50;0.40;;;4.50;91.20;;;;;;6276515;22;20000;-77
2022/01/28 02:26:16;;;;;;;2.88;0.40;;;4.50;91.10;;;;;;6250936;22;20458;-78
2022/01/28 02:28:45;;;;;;;2.75;0.32;;;4.50;91.10;;;;;;6224537;22;20007;-77
2022/01/28 02:31:11;;;;;;;0.70;0.28;;;4.50;91.40;;;;;;6278154;22;20004;-77
2022/01/28 02:33:37;;;;;;;2.08;0.28;;;4.50;91.10;;;;;;6277079;22;20024;-78
2022/01/28 02:36:05;;;;;;;1.17;0.40;;;4.50;91.10;;;;;;6275949;22;20066;-77
2022/01/28 02:38:32;;;;;;;1.98;0.43;;;4.40;91.10;;;;;;6275514;22;20091;-77
2022/01/28 02:41:00;;;;;;;0.98;0.32;;;4.40;91.10;;;;;;6274847;22;20003;-77
2022/01/28 02:43:34;;;;;;;2.40;0.47;;;4.40;91.10;;;;;;6277649;22;20003;-77
2022/01/28 02:46:06;;;;;;;1.20;0.40;;;4.40;91.10;;;;;;6251436;22;20014;-77
2022/01/28 02:48:33;;;;;;;4.25;0.50;;;4.40;91.10;;;;;;6251507;22;20008;-77
2022/01/28 02:51:04;;;;;;;0.20;0.10;;;4.40;91.10;;;;;;6251234;22;20012;-77
2022/01/28 02:56:15;;;;;;;1.17;0.40;;;4.30;91.10;;;;;;6305913;22;20283;-78
2022/01/28 02:58:42;;;;;;;2.17;0.50;;;4.40;91.10;;;;;;6306489;22;19995;-78
2022/01/28 03:01:15;;;;;;;1.27;0.43;;;4.30;91.10;;;;;;6306418;22;20011;-78
2022/01/28 03:03:43;;;;;;;0.95;0.32;;;4.30;91.10;;;;;;6278373;22;20003;-78
2022/01/28 03:06:09;;;;;;;0.73;0.30;;;4.20;91.10;;;;;;6268845;22;20042;-77
2022/01/28 03:08:35;;;;;;;1.27;0.57;;;4.20;91.10;;;;;;6277426;22;20074;-77
2022/01/28 03:16:21;;;;;;;1.25;0.43;;;4.20;91.20;;;;;;6280790;22;20035;-77
2022/01/28 03:18:58;;;;;;;1.08;0.35;;;4.20;91.20;;;;;;6251042;22;20062;-77
2022/01/28 03:21:38;;;;;;;1.70;0.60;;;4.10;91.20;;;;;;6254727;22;20039;-77
2022/01/28 03:24:06;;;;;;;0.80;0.38;;;4.10;91.20;;;;;;6280033;22;19998;-78
2022/01/28 03:26:32;;;;;;;1.35;0.25;;;4.10;91.20;;;;;;6275802;22;20015;-79
2022/01/28 03:28:58;;;;;;;0.90;0.57;;;4.20;91.20;;;;;;6305862;22;20003;-78
2022/01/28 03:31:24;;;;;;;1.27;0.30;;;4.20;91.20;;;;;;6277180;22;20027;-78
2022/01/28 03:33:50;;;;;;;1.77;0.32;;;4.30;91.20;;;;;;6225584;22;20035;-77
2022/01/28 03:36:16;;;;;;;1.65;0.38;;;4.30;91.10;;;;;;6250024;22;20447;-77
2022/01/28 03:38:42;;;;;;;1.63;0.57;;;4.30;91.10;;;;;;6252696;22;20023;-77
2022/01/28 03:41:15;;;;;;;1.95;0.57;;;4.30;91.10;;;;;;6276950;22;20004;-77
2022/01/28 03:43:41;;;;;;;0.95;0.40;;;4.30;91.00;;;;;;6305889;22;19999;-77
2022/01/28 03:46:07;;;;;;;1.02;0.38;;;4.30;91.00;;;;;;6276952;22;20004;-77
2022/01/28 03:48:32;;;;;;;1.15;0.22;;;4.30;91.00;;;;;;6224451;22;20011;-77
2022/01/28 03:50:58;;;;;;;1.55;0.30;;;4.30;91.00;;;;;;6278343;22;20072;-77
2022/01/28 03:53:24;;;;;;;0.90;0.40;;;4.30;91.10;;;;;;6305863;22;20015;-77
2022/01/28 03:55:52;;;;;;;2.67;0.52;;;4.20;91.10;;;;;;6275883;22;20102;-77
2022/01/28 03:58:18;;;;;;;2.42;0.40;;;4.20;91.10;;;;;;6305869;22;20454;-77
2022/01/28 04:00:44;;;;;;;1.75;0.50;;;4.20;91.10;;;;;;6277357;22;20007;-77
2022/01/28 04:03:24;;;;;;;1.08;0.13;;;4.30;91.10;;;;;;6277315;22;20041;-77
2022/01/28 04:11:26;;;;;;;1.45;0.45;;;4.20;91.10;;;;;;6228114;22;20035;-77
2022/01/28 04:11:33;;;;;;;0.95;0.30;;;4.20;91.10;;;;;;6305655;22;20390;-77
2022/01/28 04:19:26;;;;;;;0.13;0.13;;;4.20;91.10;;;;;;6305943;22;20443;-77
2022/01/28 04:21:51;;;;;;;2.25;0.30;;;4.20;91.10;;;;;;6277294;22;20058;-77
2022/01/28 04:24:17;;;;;;;0.93;0.30;;;4.20;91.10;;;;;;6276360;22;20026;-78
2022/01/28 04:26:43;;;;;;;0.43;0.20;;;4.10;91.10;;;;;;6250006;22;20061;-77
2022/01/28 04:29:11;;;;;;;0.22;0.20;;;4.20;91.20;;;;;;6278188;22;20007;-77
2022/01/28 04:31:42;;;;;;;3.00;0.50;;;4.10;91.20;;;;;;6277448;22;20281;-78
2022/01/28 04:34:09;;;;;;;0.77;0.23;;;4.10;91.20;;;;;;6277549;22;20460;-77
2022/01/28 04:36:40;;;;;;;0.65;0.30;;;4.10;91.20;;;;;;6276643;22;20007;-78
2022/01/28 04:39:15;;;;;;;0.43;0.25;;;4.20;91.30;;;;;;6226938;22;20008;-77
2022/01/28 04:44:36;;;;;;;0.60;0.20;;;4.00;91.30;;;;;;6279362;22;20011;-77
2022/01/28 04:47:11;;;;;;;0.10;0.10;;;4.00;91.40;;;;;;6279616;22;19999;-77
2022/01/28 04:50:03;;;;;;;0.52;0.20;;;3.90;91.40;;;;;;6280145;22;19995;-77
2022/01/28 04:55:12;;;;;;;0.10;0.10;;;3.80;91.50;;;;;;6305393;22;20010;-78
2022/01/28 05:00:42;;;;;;;0.40;0.20;;;3.80;91.60;;;;;;6305390;22;20443;-77
2022/01/28 05:09:04;;;;;;;0.60;0.25;;;3.90;91.60;;;;;;6305725;22;20461;-77
2022/01/28 05:11:40;;;;;;;0.40;0.20;;;3.70;91.50;;;;;;6281633;22;20056;-78
2022/01/28 05:17:10;;;;;;;0.65;0.20;;;3.70;91.60;;;;;;6278359;22;20007;-77
2022/01/28 05:25:09;;;;;;;0.10;0.10;;;3.60;91.60;;;;;;6305873;22;19899;-77
2022/01/28 05:27:42;;;;;;;0.00;0.00;;;3.50;91.60;;;;;;6279481;22;20006;-77
2022/01/28 05:30:08;;;;;;;1.45;0.20;;;3.50;91.60;;;;;;6305998;22;20011;-77
2022/01/28 05:32:35;;;;;;;0.20;0.10;;;3.50;91.70;;;;;;6275402;22;20014;-77
2022/01/28 05:35:00;;;;;;;0.10;0.03;;;3.50;91.70;;;;;;6253088;22;20000;-77
2022/01/28 05:37:26;;;;;;;0.20;0.10;;;3.40;91.70;;;;;;6305907;22;20030;-77
2022/01/28 05:39:52;;;;;;;1.42;0.20;;;3.40;91.70;;;;;;6250205;22;21291;-78
2022/01/28 05:42:17;;;;;;;0.40;0.20;;;3.40;91.80;;;;;;6278009;22;20052;-77
2022/01/28 05:44:43;;;;;;;0.25;0.10;;;3.30;91.80;;;;;;6277087;22;20003;-77
2022/01/28 05:47:14;;;;;;;1.02;0.20;;;3.30;91.80;;;;;;6305592;22;20482;-77
2022/01/28 05:49:41;;;;;;;0.10;0.10;;;3.30;91.80;;;;;;6305897;22;20007;-77
2022/01/28 05:52:07;;;;;;;2.67;0.45;;;3.30;91.80;;;;;;6275102;22;20016;-78
2022/01/28 05:54:33;;;;;;;0.40;0.17;;;3.20;91.80;;;;;;6252896;22;20000;-77
2022/01/28 05:56:59;;;;;;;0.08;0.08;;;3.20;91.90;;;;;;6305718;22;20098;-76
2022/01/28 05:59:25;;;;;;;0.10;0.10;;;3.10;91.90;;;;;;6276032;22;20008;-77
2022/01/28 06:01:50;;;;;;;0.10;0.10;;;3.10;91.90;;;;;;6249065;22;20003;-77
2022/01/28 06:04:16;;;;;;;0.10;0.10;;;3.10;91.90;;;;;;6276873;22;20420;-77
2022/01/28 06:06:42;;;;;;;0.10;0.10;;;3.00;92.00;;;;;;6250319;22;19996;-78
2022/01/28 06:09:08;;;;;;;0.45;0.20;;;3.10;92.00;;;;;;6224449;22;20420;-78
2022/01/28 06:11:34;;;;;;;0.32;0.13;;;3.00;92.00;;;;;;6277229;22;20006;-78
2022/01/28 06:14:00;;;;;;;1.73;0.30;;;3.10;92.00;;;;;;6225710;22;20022;-77
2022/01/28 06:16:26;;;;;;;0.65;0.25;;;3.10;92.00;;;;;;6276268;22;20016;-77
2022/01/28 06:18:54;;;;;;;1.42;0.13;;;3.10;92.00;;;;;;6278242;22;20305;-78
2022/01/28 06:21:20;;;;;;;1.75;0.10;;;3.10;91.90;;;;;;6226468;22;20427;-79
2022/01/28 06:23:46;;;;;;;0.73;0.35;;;3.20;91.90;;;;;;6225516;22;20031;-78
2022/01/28 06:26:11;;;;;;;0.60;0.10;;;3.20;91.90;;;;;;6251166;22;20070;-78
2022/01/28 06:28:37;;;;;;;0.28;0.20;;;3.20;91.80;;;;;;6253124;22;20004;-77
2022/01/28 06:31:03;;;;;;;1.33;0.20;;;3.30;91.80;;;;;;6227068;22;20323;-78
2022/01/28 06:33:29;;;;;;;0.22;0.10;;;3.40;91.80;;;;;;6306885;22;20443;-78
2022/01/28 06:35:55;;;;;;;1.40;0.22;;;3.30;91.80;;;;;;6275964;22;19996;-78
2022/01/28 06:38:20;;;;;;;0.35;0.20;;;3.30;91.70;;;;;;6306644;22;20459;-78
2022/01/28 06:40:48;;;;;;;0.30;0.03;;;3.30;91.80;;;;;;6306900;22;20003;-78
2022/01/28 06:43:16;;;;;;;0.70;0.30;;;3.40;91.70;;;;;;6251485;22;20042;-78
2022/01/28 06:45:43;;;;;;;0.25;0.13;;;3.40;91.70;;;;;;6225454;22;20320;-78
2022/01/28 06:48:10;;;;;;;1.27;0.38;;;3.40;91.70;;;;;;6278676;22;20010;-78
2022/01/28 06:50:37;;;;;;;1.10;0.30;;;3.50;91.60;;;;;;6278299;22;20000;-79
2022/01/28 06:53:04;;;;;;;0.98;0.30;;;3.40;91.60;;;;;;6226556;22;20150;-78
2022/01/28 06:55:29;;;;;;;0.38;0.10;;;3.40;91.60;;;;;;6250862;22;20027;-78
2022/01/28 06:57:56;;;;;;;1.23;0.20;;;3.40;91.60;;;;;;6306563;22;19999;-78
2022/01/28 07:00:22;;;;;;;0.75;0.20;;;3.40;91.60;;;;;;6306854;22;20069;-79
2022/01/28 07:02:50;;;;;;;0.20;0.20;;;3.40;91.50;;;;;;6226209;22;20511;-78
2022/01/28 07:05:16;;;;;;;0.20;0.10;;;3.40;91.50;;;;;;6250053;22;20024;-78
2022/01/28 07:07:42;;;;;;;0.45;0.20;;;3.40;91.60;;;;;;6253409;22;20006;-78
2022/01/28 07:10:08;;;;;;;0.25;0.17;;;3.40;91.60;;;;;;6278757;22;20003;-78
2022/01/28 07:12:34;;;;;;;0.10;0.10;;;3.30;91.70;;;;;;6251274;22;20008;-78
2022/01/28 07:15:00;;;;;;;0.20;0.10;;;3.20;91.70;;;;;;6267175;22;20000;-78
2022/01/28 07:17:26;;;;;;;0.15;0.10;;;3.20;91.70;;;;;;6269100;22;20466;-78
2022/01/28 07:19:52;;;;;;;0.35;0.10;;;3.20;91.80;;;;;;6226209;22;20049;-78
2022/01/28 07:22:18;;;;;;;0.30;0.10;;;3.20;91.80;;;;;;6305703;22;20003;-78
2022/01/28 07:24:43;;;;;;;1.15;0.17;;;3.20;91.90;;;;;;6278724;22;20014;-78
2022/01/28 07:27:09;;;;;;;0.30;0.20;;;3.10;91.90;;;;;;6278300;22;20424;-77
2022/01/28 07:29:35;;;;;;;0.17;0.00;;;3.10;91.90;;;;;;6251046;22;20106;-77
2022/01/28 07:32:01;;;;;;;1.17;0.20;;;3.10;91.90;;;;;;6250590;22;20011;-77
2022/01/28 07:34:27;;;;;;;0.75;0.20;;;3.20;92.20;;;;;;6305883;22;19999;-77
2022/01/28 07:36:53;;;;;;;0.50;0.20;;;3.20;91.90;;;;;;6225912;22;19999;-77
2022/01/28 07:39:19;;;;;;;0.03;0.03;;;3.10;91.90;;;;;;6306161;22;20049;-77
2022/01/28 07:41:44;;;;;;;0.20;0.10;;;3.10;91.90;;;;;;6282006;22;20038;-76
2022/01/28 07:44:16;;;;;;;0.00;0.00;;;3.10;91.90;;;;;;6277747;22;20010;-77
2022/01/28 07:47:46;;;;;;;0.65;0.22;;;3.20;91.90;;;;;;6185694;23;20028;-78
2022/01/28 07:50:46;;;;;;;0.75;0.20;;;3.20;92.00;;;;;;6066820;23;20135;-78
2022/01/28 07:53:45;;;;;;;1.42;0.17;;;3.30;91.90;;;;;;6049345;23;20052;-77
2022/01/28 07:56:46;;;;;;;0.85;0.22;;;3.20;91.80;;;;;;6062332;23;20018;-78
2022/01/28 07:59:12;;;;;;;0.85;0.30;;;3.30;91.80;;;;;;5920144;24;20020;-78
2022/01/28 08:01:38;;;;;;;0.57;0.25;;;3.40;91.80;;;;;;5923989;24;20013;-77
2022/01/28 08:04:04;;;;;;;0.68;0.20;;;3.30;91.70;;;;;;5924301;24;20025;-78
2022/01/28 08:06:30;;;;;;;0.60;0.20;;;3.40;91.70;;;;;;5901045;24;20021;-78
2022/01/28 08:08:58;;;;;;;1.65;0.10;;;3.30;91.60;;;;;;5923571;24;20017;-78
2022/01/28 08:11:24;;;;;;;0.55;0.30;;;3.30;91.60;;;;;;5932830;24;20080;-78
2022/01/28 08:13:50;;;;;;;2.22;0.32;;;3.40;91.60;;;;;;5956432;24;20032;-77
2022/01/28 08:16:16;;;;;;;1.23;0.10;;;3.30;91.60;;;;;;5979486;23;20043;-78
2022/01/28 08:18:42;;;;;;;0.98;0.43;;;3.30;91.70;;;;;;5956685;24;20023;-78
2022/01/28 08:21:08;;;;;;;5.18;0.60;;;3.30;91.70;;;;;;5973762;23;20023;-78
2022/01/28 08:23:35;;;;;;;0.85;0.17;;;3.30;91.80;;;;;;6018161;23;20090;-78
2022/01/28 08:26:01;;;;;;;1.10;0.40;;;3.30;91.80;;;;;;6012844;23;20066;-78
2022/01/28 08:28:27;;;;;;;0.75;0.20;;;3.30;91.80;;;;;;6038079;23;20098;-76
2022/01/28 08:30:54;;;;;;;0.45;0.10;;;3.40;91.80;;;;;;6083500;23;20615;-74
2022/01/28 08:33:20;;;;;;;0.20;0.10;;;3.40;91.70;;;;;;6073382;23;20096;-75
2022/01/28 08:35:51;;;;;;;0.40;0.20;;;3.40;91.70;;;;;;6123358;23;20336;-75
2022/01/28 08:38:24;;;;;;;;;;;3.40;91.80;;;;;;6217675;23;20043;-76
2022/01/28 08:40:53;;;;;;;0.10;0.10;;;3.40;92.00;;;;;;6217788;23;19938;-76
2022/01/28 08:43:21;;;;;;;1.05;0.20;;;3.50;91.80;;;;;;6164747;23;20039;-77
2022/01/28 08:45:48;;;;;;;0.10;0.10;;;3.60;91.80;;;;;;6242159;23;20016;-75
2022/01/28 08:48:14;;;;;;;0.20;0.20;;;3.60;91.70;;;;;;6166517;23;20008;-76
2022/01/28 08:50:40;;;;;;;0.10;0.10;;;3.60;91.70;;;;;;6170482;23;20094;-76
2022/01/28 08:53:06;;;;;;;0.22;0.20;;;3.60;91.70;;;;;;6189549;23;20013;-76
2022/01/28 08:55:33;;;;;;;2.17;0.40;;;3.60;91.70;;;;;;6241771;23;20004;-77
2022/01/28 08:57:58;;;;;;;1.50;0.30;;;3.70;91.60;;;;;;6241787;23;20012;-77
2022/01/28 09:00:25;;;;;;;0.95;0.20;;;3.90;91.70;;;;;;6189833;23;20557;-76
2022/01/28 09:02:51;;;;;;;1.10;0.43;;;3.80;91.60;;;;;;6270692;22;20011;-75
2022/01/28 09:05:18;;;;;;;0.30;0.30;;;3.90;91.50;;;;;;6225693;22;20007;-78
2022/01/28 09:07:44;;;;;;;3.33;0.50;;;4.10;91.50;;;;;;6280691;22;20003;-76
2022/01/28 09:10:18;;;;;;;3.72;0.40;;;4.00;91.40;;;;;;6278418;22;20011;-75
2022/01/28 09:15:22;;;;;;;0.68;0.40;;;4.20;91.30;;;;;;6316346;22;20010;-76
2022/01/28 09:17:47;;;;;;;2.22;0.63;;;4.10;91.20;;;;;;6316292;22;20058;-76
2022/01/28 09:20:13;;;;;;;0.57;0.30;;;4.30;91.20;;;;;;6296749;22;19995;-75
2022/01/28 09:22:39;;;;;;;1.20;0.40;;;4.30;91.10;;;;;;6286315;22;20000;-75
2022/01/28 09:25:05;;;;;;;0.77;0.45;;;4.40;91.10;;;;;;6277121;22;20006;-76
2022/01/28 09:27:31;;;;;;;2.13;0.60;;;4.40;91.10;;;;;;6318494;22;20003;-75
2022/01/28 09:29:57;;;;;;;2.17;0.63;;;4.50;91.20;;;;;;6307978;22;20033;-74
2022/01/28 09:32:22;;;;;;;2.47;0.77;;;4.40;91.10;;;;;;6305585;22;20380;-75
2022/01/28 09:34:48;;;;;;;1.00;0.60;;;4.60;91.10;;;;;;6305584;22;20018;-75
2022/01/28 09:37:14;;;;;;;1.42;0.57;;;4.60;91.00;;;;;;6252337;22;20003;-76
2022/01/28 09:39:45;;;;;;;0.88;0.45;;;4.70;91.00;;;;;;6285249;22;20108;-77
2022/01/28 09:42:15;;;;;;;2.38;0.70;;;4.70;91.00;;;;;;6274252;22;20000;-76
2022/01/28 09:44:43;;;;;;;1.20;0.40;;;4.80;91.00;;;;;;6294424;22;20079;-77
2022/01/28 09:47:11;;;;;;;0.95;0.45;;;5.00;91.00;;;;;;6299779;22;20016;-77
2022/01/28 09:49:41;;;;;;;1.88;0.75;;;4.90;90.90;;;;;;6297057;22;20028;-78
2022/01/28 09:52:09;;;;;;;1.80;0.65;;;5.00;90.90;;;;;;6259052;22;20003;-78
2022/01/28 09:54:36;;;;;;;1.05;0.57;;;5.10;90.80;;;;;;6278435;22;20324;-76
2022/01/28 09:57:03;;;;;;;2.83;0.65;;;5.10;90.80;;;;;;6305345;22;20167;-77
2022/01/28 09:59:29;;;;;;;0.68;0.50;;;5.20;90.80;;;;;;6276088;22;20034;-75
2022/01/28 10:01:56;;;;;;;1.75;0.50;;;5.20;90.80;;;;;;6305557;22;20074;-76
2022/01/28 10:04:23;;;;;;;1.10;0.40;;;5.30;90.80;;;;;;6277478;22;20018;-76
2022/01/28 10:06:49;;;;;;;1.95;0.47;;;5.40;90.80;;;;;;6305555;22;20431;-76
2022/01/28 10:09:18;;;;;;;0.93;0.38;;;5.40;90.80;;;;;;6305043;22;20074;-75
2022/01/28 10:11:47;;;;;;;1.92;0.47;;;5.50;90.70;;;;;;6305530;22;19999;-75
2022/01/28 10:14:16;;;;;;;2.72;0.52;;;5.60;90.70;;;;;;6250633;22;20006;-76
2022/01/28 10:16:42;;;;;;;2.25;0.50;;;5.70;90.60;;;;;;6305312;22;20439;-76
2022/01/28 10:19:10;;;;;;;2.75;0.50;;;5.70;90.60;;;;;;6278354;22;20008;-77
2022/01/28 10:21:39;;;;;;;1.73;0.50;;;5.80;90.60;;;;;;6277072;22;20030;-77
2022/01/28 10:24:21;;;;;;;0.90;0.55;;;5.90;90.50;;;;;;6277040;22;20510;-76
2022/01/28 10:26:54;;;;;;;3.83;0.52;;;6.00;90.50;;;;;;6276944;22;20015;-75
2022/01/28 10:29:31;;;;;;;1.48;0.52;;;6.10;90.40;;;;;;6280231;22;20004;-75
2022/01/28 10:32:01;;;;;;;2.63;0.70;;;6.20;90.40;;;;;;6286602;22;20052;-76
2022/01/28 10:34:31;;;;;;;0.73;0.30;;;6.20;90.30;;;;;;6253147;22;20078;-77
2022/01/28 10:37:20;;;;;;;2.78;0.85;;;6.20;90.30;;;;;;6250248;22;20378;-75
2022/01/28 10:39:51;;;;;;;0.98;0.52;;;6.40;90.20;;;;;;6316796;22;20015;-78
2022/01/28 10:42:20;;;;;;;;;;;6.40;90.20;;;;;;6298914;22;19984;-78
2022/01/28 10:45:09;;;;;;;0.82;0.40;;;6.50;90.20;;;;;;6326918;22;19922;-77
2022/01/28 10:47:46;;;;;;;3.63;0.50;;;6.60;90.10;;;;;;6290759;22;20015;-74
2022/01/28 10:50:27;;;;;;;1.10;0.50;;;6.70;90.10;;;;;;6284441;22;20062;-76
2022/01/28 10:53:06;;;;;;;2.33;0.35;;;6.70;90.00;;;;;;6250917;22;20054;-75
2022/01/28 10:55:35;;;;;;;1.67;0.45;;;6.70;90.00;;;;;;6279700;22;19996;-76
2022/01/28 10:58:04;;;;;;;2.42;0.50;;;6.90;90.00;;;;;;6309312;22;19995;-75
2022/01/28 11:00:33;;;;;;;1.02;0.40;;;6.80;90.00;;;;;;6285244;22;19996;-77
2022/01/28 11:03:02;;;;;;;1.83;0.60;;;7.00;90.00;;;;;;6254523;22;20132;-78
2022/01/28 11:05:29;;;;;;;3.03;0.50;;;7.00;89.90;;;;;;6280668;22;20072;-79
2022/01/28 11:07:57;;;;;;;2.05;0.40;;;7.10;89.80;;;;;;6287924;22;20382;-77
2022/01/28 11:10:23;;;;;;;2.75;0.50;;;7.10;89.70;;;;;;6280930;22;20034;-76
2022/01/28 11:12:51;;;;;;;2.55;0.77;;;7.20;89.70;;;;;;6252775;22;20435;-76
2022/01/28 11:15:17;;;;;;;2.63;0.45;;;7.30;89.70;;;;;;6264137;22;20026;-76
2022/01/28 11:17:43;;;;;;;2.25;0.40;;;7.40;89.50;;;;;;6282954;22;20003;-74
2022/01/28 11:20:15;;;;;;;1.08;0.30;;;7.50;89.30;;;;;;6310095;22;20441;-79
2022/01/28 11:23:22;;;;;;;1.02;0.35;;;7.70;89.30;;;;;;6256438;22;20015;-75
2022/01/28 11:26:19;;;;;;;1.73;0.52;;;7.70;89.00;;;;;;6292373;22;19983;-77
2022/01/28 11:28:52;;;;;;;2.85;0.68;;;7.80;88.80;;;;;;6323034;22;20054;-79
2022/01/28 11:31:50;;;;;;;1.35;0.32;;;7.80;88.70;;;;;;6256431;22;19992;-79
2022/01/28 11:34:27;;;;;;;2.05;0.45;;;7.90;88.60;;;;;;6257576;22;20016;-80
2022/01/28 11:36:55;;;;;;;2.97;0.65;;;8.00;88.50;;;;;;6258281;22;20024;-80
2022/01/28 11:39:33;;;;;;;4.75;0.77;;;7.90;88.40;;;;;;6279877;22;20011;-81
2022/01/28 11:42:05;;;;;;;0.60;0.20;;;8.00;88.40;;;;;;6332380;22;20014;-80
2022/01/28 11:44:43;;;;;;;2.67;0.60;;;8.00;88.30;;;;;;6242506;22;20067;-81
2022/01/28 11:47:11;;;;;;;3.33;0.52;;;7.90;88.30;;;;;;6271647;22;20443;-80
2022/01/28 11:50:07;;;;;;;1.90;0.60;;;7.90;88.40;;;;;;6241631;22;20024;-78
2022/01/28 11:52:38;;;;;;;2.08;0.50;;;7.90;88.40;;;;;;6289183;22;20015;-79
2022/01/28 11:55:31;;;;;;;0.63;0.32;;;7.80;88.50;;;;;;6260279;22;20000;-81
2022/01/28 11:58:06;;;;;;;0.52;0.22;;;7.70;88.60;;;;;;6245731;22;20024;-80
2022/01/28 12:00:44;;;;;;;2.80;0.60;;;7.90;88.50;;;;;;6297560;22;20019;-79
2022/01/28 12:03:25;;;;;;;1.80;0.50;;;8.00;88.30;;;;;;6241644;22;20019;-76
2022/01/28 12:05:52;;;;;;;0.50;0.20;;;8.00;88.00;;;;;;6236296;22;20004;-76
2022/01/28 12:08:19;;;;;;;4.70;0.80;;;8.10;87.90;;;;;;6264163;22;20245;-75
2022/01/28 12:10:47;;;;;;;2.25;0.45;;;8.00;87.70;;;;;;6291433;22;20011;-75
2022/01/28 12:13:17;;;;;;;1.13;0.50;;;8.00;87.80;;;;;;6252473;22;20099;-75
2022/01/28 12:16:09;;;;;;;1.65;0.63;;;7.90;88.00;;;;;;6281937;22;20064;-76
2022/01/28 12:18:53;;;;;;;0.47;0.20;;;7.90;88.10;;;;;;6348834;22;19994;-78
2022/01/28 12:21:29;;;;;;;1.08;0.35;;;8.00;87.90;;;;;;6283828;22;20129;-79
2022/01/28 12:24:35;;;;;;;2.15;0.57;;;8.00;87.90;;;;;;6283710;22;20034;-78
2022/01/28 12:27:04;;;;;;;1.17;0.30;;;7.90;88.00;;;;;;6308423;22;20090;-78
2022/01/28 12:29:34;;;;;;;0.40;0.20;;;7.80;88.10;;;;;;6309258;22;20006;-78
2022/01/28 12:32:01;;;;;;;1.52;0.40;;;7.80;88.50;;;;;;6310230;22;20003;-80
2022/01/28 12:34:27;;;;;;;2.78;0.50;;;7.80;89.10;;;;;;6304870;22;20003;-78
2022/01/28 12:36:57;;;;;;;1.23;0.40;;;7.80;88.30;;;;;;6303228;22;20415;-80
2022/01/28 12:44:51;;;;;;;1.35;0.40;;;8.00;88.30;;;;;;6336671;22;20034;-81
2022/01/28 12:47:17;;;;;;;1.58;0.35;;;8.10;88.00;;;;;;6309105;22;20068;-79
2022/01/28 12:49:43;;;;;;;2.38;0.50;;;8.10;87.90;;;;;;6283890;22;20434;-80
2022/01/28 12:52:10;;;;;;;1.75;0.68;;;8.20;87.90;;;;;;6282867;22;20316;-81
2022/01/28 12:54:41;;;;;;;2.15;0.60;;;8.40;87.60;;;;;;6309897;22;20003;-80
2022/01/28 12:57:10;;;;;;;0.57;0.40;;;8.40;87.10;;;;;;6283365;22;20003;-79
2022/01/28 12:59:38;;;;;;;0.80;0.30;;;8.40;87.20;;;;;;6283170;22;20085;-81
2022/01/28 13:02:04;;;;;;;2.10;0.30;;;8.70;87.00;;;;;;6283760;22;20053;-80
2022/01/28 13:04:51;;;;;;;1.90;0.55;;;8.70;86.90;;;;;;6284369;22;20357;-79
2022/01/28 13:09:57;;;;;;;1.95;0.80;;;8.90;86.30;;;;;;6304167;22;20007;-80
2022/01/28 13:12:26;;;;;;;0.40;0.35;;;9.00;86.20;;;;;;6305766;22;20316;-79
2022/01/28 13:14:53;;;;;;;3.50;0.68;;;9.20;86.20;;;;;;6310045;22;20003;-79
2022/01/28 13:17:22;;;;;;;3.78;0.75;;;9.20;85.90;;;;;;6339081;22;20006;-79
2022/01/28 13:19:58;;;;;;;2.45;0.55;;;9.20;85.50;;;;;;6312993;22;20052;-80
2022/01/28 13:22:28;;;;;;;3.20;0.68;;;9.30;85.60;;;;;;6284966;22;20015;-78
2022/01/28 13:24:56;;;;;;;2.83;0.63;;;9.30;85.50;;;;;;6309886;22;20007;-77
2022/01/28 13:27:37;;;;;;;0.85;0.55;;;9.20;85.20;;;;;;6283613;22;20013;-78
2022/01/28 13:30:13;;;;;;;0.85;0.40;;;9.00;85.30;;;;;;6313200;22;20025;-78
2022/01/28 13:32:41;;;;;;;1.83;0.50;;;8.90;85.80;;;;;;6311454;22;20022;-77
2022/01/28 13:35:16;;;;;;;1.98;0.60;;;8.80;86.10;;;;;;6283796;22;20442;-77
2022/01/28 13:37:48;;;;;;;1.23;0.40;;;8.80;86.30;;;;;;6310153;22;19998;-78
2022/01/28 13:40:33;;;;;;;0.90;0.40;;;8.80;86.10;;;;;;6283404;22;19999;-78
2022/01/28 13:43:08;;;;;;;1.23;0.50;;;8.90;86.10;;;;;;6283528;22;20006;-78
2022/01/28 13:45:59;;;;;;;3.13;0.40;;;8.90;85.90;;;;;;6283180;22;20005;-77
2022/01/28 13:48:41;;;;;;;1.02;0.52;;;9.00;85.70;;;;;;6279692;22;20010;-78
2022/01/28 13:51:09;;;;;;;1.75;0.40;;;9.00;85.40;;;;;;6307970;22;20045;-78
2022/01/28 13:54:15;;;;;;;1.92;0.45;;;9.00;85.70;;;;;;6283661;22;20014;-77
2022/01/28 13:56:42;;;;;;;0.88;0.38;;;9.00;85.60;;;;;;6336281;22;20086;-78
2022/01/28 13:59:25;;;;;;;0.60;0.40;;;9.10;85.50;;;;;;6308322;22;20007;-78
2022/01/28 14:02:10;;;;;;;2.58;0.60;;;9.10;85.30;;;;;;6309647;22;19999;-78
2022/01/28 14:04:43;;;;;;;1.48;0.50;;;9.10;85.30;;;;;;6336548;22;19995;-78
2022/01/28 14:07:17;;;;;;;1.35;0.40;;;9.00;85.30;;;;;;6283193;22;19999;-78
2022/01/28 14:09:45;;;;;;;1.30;0.45;;;9.10;85.40;;;;;;6279404;22;20013;-78
2022/01/28 14:12:21;;;;;;;1.38;0.57;;;9.10;85.30;;;;;;6283161;22;20084;-78
2022/01/28 14:14:48;;;;;;;1.67;0.40;;;9.10;85.20;;;;;;6305615;22;20443;-78
2022/01/28 14:17:14;;;;;;;2.78;0.52;;;9.10;85.20;;;;;;6305303;22;20019;-78
2022/01/28 14:19:41;;;;;;;2.17;0.68;;;9.20;85.30;;;;;;6309403;22;19999;-78
2022/01/28 14:22:08;;;;;;;0.65;0.40;;;9.20;85.20;;;;;;6336489;22;20026;-78
2022/01/28 14:24:37;;;;;;;0.82;0.50;;;9.00;85.10;;;;;;6308649;22;20017;-77
2022/01/28 14:29:51;;;;;;;2.10;0.60;;;9.10;85.40;;;;;;6311756;22;20342;-78
2022/01/28 14:32:21;;;;;;;1.98;0.50;;;9.10;85.40;;;;;;6308703;22;20060;-78